Terminal Aerodrome Forecast
Issued by NWS Charleston, WV

Current Version | Previous Version | Text Only | Print | Product List | Glossary Off
Versions: 1 2 3 4 5 6 7 8 9 10 11 12 13 14 15 16 17 18 19 20 21 22 23 24 25 26

000
FTUS41 KRLX 151300 AAB
TAFEKN
TAF AMD
KEKN 151359Z 1514/1612 00000KT 1/2SM FG VV003
      TEMPO 1514/1515 3SM BR BKN003
     FM151500 VRB03KT P6SM BKN015
     FM151600 27007KT P6SM SCT040
     FM160600 26005KT 5SM BR BKN090
     FM160900 28006KT 5SM BR BKN030=

USA.gov is the U.S. government's official web portal to all federal, state and local government web resources and services.